createdAt,value
2022-11-13T00:02:53.662Z,9.60
2022-11-13T00:08:14.146Z,9.30
2022-11-13T00:13:35.139Z,9.40
2022-11-13T00:18:55.598Z,9.18
2022-11-13T00:24:15.901Z,6.38
2022-11-13T00:29:36.197Z,7.95
2022-11-13T00:34:56.563Z,8.43
2022-11-13T00:40:17.281Z,9.05
2022-11-13T00:45:37.526Z,8.90
2022-11-13T00:50:58.284Z,6.65
2022-11-13T00:56:18.536Z,8.02
2022-11-13T01:01:39.345Z,10.50
2022-11-13T01:06:59.646Z,6.43
2022-11-13T01:12:20.037Z,7.03
2022-11-13T01:17:40.465Z,7.15
2022-11-13T01:23:01.060Z,6.07
2022-11-13T01:28:21.429Z,8.20
2022-11-13T01:33:41.852Z,8.27
2022-11-13T01:39:02.486Z,6.38
2022-11-13T01:44:23.293Z,8.05
2022-11-13T01:49:45.653Z,9.65
2022-11-13T01:55:12.052Z,8.02
2022-11-13T02:00:32.285Z,11.93
2022-11-13T02:05:56.787Z,8.50
2022-11-13T02:11:17.667Z,9.10
2022-11-13T02:16:39.477Z,7.32
2022-11-13T02:22:10.749Z,7.72
2022-11-13T02:27:36.552Z,9.38
2022-11-13T02:32:58.328Z,9.85
2022-11-13T02:38:18.964Z,7.65
2022-11-13T02:43:39.392Z,13.30
2022-11-13T02:48:59.993Z,11.30
2022-11-13T02:54:20.583Z,8.93
2022-11-13T02:59:41.536Z,7.82
2022-11-13T03:05:17.067Z,9.80
2022-11-13T03:10:37.584Z,6.75
2022-11-13T03:16:06.838Z,8.25
2022-11-13T03:21:27.372Z,9.23
2022-11-13T03:26:47.641Z,11.55
2022-11-13T03:32:07.704Z,7.93
2022-11-13T03:37:28.003Z,9.50
2022-11-13T03:42:48.409Z,11.55
2022-11-13T03:48:09.288Z,9.18
2022-11-13T03:53:29.745Z,6.93
2022-11-13T03:58:49.931Z,9.77
2022-11-13T04:04:10.267Z,8.63
2022-11-13T04:09:30.578Z,7.80
2022-11-13T04:14:50.863Z,7.70
2022-11-13T04:20:11.846Z,6.03
2022-11-13T04:25:32.290Z,7.55
2022-11-13T04:30:56.122Z,7.00
2022-11-13T04:36:16.422Z,7.05
2022-11-13T04:41:55.760Z,9.18
2022-11-13T04:47:16.052Z,9.82
2022-11-13T04:52:36.469Z,9.70
2022-11-13T04:57:56.745Z,9.02
2022-11-13T05:03:16.947Z,7.32
2022-11-13T05:08:37.312Z,9.13
2022-11-13T05:14:03.035Z,9.40
2022-11-13T05:19:24.646Z,8.95
2022-11-13T05:24:44.670Z,7.32
2022-11-13T05:30:05.638Z,5.85
2022-11-13T05:35:26.081Z,5.72
2022-11-13T05:40:46.683Z,5.30
2022-11-13T05:46:29.093Z,5.63
2022-11-13T05:51:49.307Z,5.53
2022-11-13T05:57:09.642Z,5.63
2022-11-13T06:02:30.115Z,3.63
2022-11-13T06:07:50.746Z,4.72
2022-11-13T06:13:10.982Z,4.85
2022-11-13T06:18:31.975Z,8.93
2022-11-13T06:23:52.426Z,5.38
2022-11-13T06:29:13.185Z,9.02
2022-11-13T06:34:33.456Z,5.35
2022-11-13T06:39:53.746Z,4.82
2022-11-13T06:45:14.129Z,8.55
2022-11-13T06:50:34.551Z,6.35
2022-11-13T06:55:54.666Z,6.60
2022-11-13T07:01:18.049Z,9.32
2022-11-13T07:06:40.552Z,10.13
2022-11-13T07:12:00.726Z,10.32
2022-11-13T07:17:21.016Z,7.80
2022-11-13T07:22:41.454Z,9.48
2022-11-13T07:28:01.751Z,7.72
2022-11-13T07:33:22.298Z,9.52
2022-11-13T07:38:42.754Z,11.23
2022-11-13T07:44:07.938Z,7.43
2022-11-13T07:49:29.689Z,5.82
2022-11-13T07:54:50.225Z,8.25
2022-11-13T08:00:11.337Z,9.70
2022-11-13T08:05:34.246Z,14.25
2022-11-13T08:10:54.358Z,8.05
2022-11-13T08:16:14.885Z,7.60
2022-11-13T08:21:35.991Z,9.82
2022-11-13T08:26:56.080Z,6.53
2022-11-13T08:32:18.215Z,7.53
2022-11-13T08:37:38.424Z,10.32
2022-11-13T08:43:03.932Z,12.10
2022-11-13T08:48:25.359Z,14.50
2022-11-13T08:53:45.787Z,8.68
2022-11-13T08:59:06.043Z,12.57
2022-11-13T09:04:27.121Z,11.50
2022-11-13T09:09:47.640Z,8.02
2022-11-13T09:15:08.522Z,6.82
2022-11-13T09:20:30.839Z,11.32
2022-11-13T09:25:51.159Z,8.65
2022-11-13T09:31:11.553Z,9.05
2022-11-13T09:36:31.911Z,11.20
2022-11-13T09:42:02.324Z,8.07
2022-11-13T09:47:30.624Z,8.00
2022-11-13T09:52:52.172Z,8.80
2022-11-13T09:58:38.937Z,9.15
2022-11-13T10:04:06.132Z,10.43
2022-11-13T10:09:55.584Z,9.35
2022-11-13T10:20:49.959Z,9.60
2022-11-13T10:26:29.585Z,14.38
2022-11-13T10:31:52.342Z,11.55
2022-11-13T10:37:21.204Z,9.90
2022-11-13T10:48:04.602Z,9.70
2022-11-13T10:53:27.586Z,13.30
2022-11-13T10:59:12.038Z,11.40
2022-11-13T11:04:32.480Z,11.10
2022-11-13T11:09:53.042Z,8.48
2022-11-13T11:15:37.206Z,9.13
2022-11-13T11:20:59.794Z,10.73
2022-11-13T11:26:35.345Z,10.95
2022-11-13T11:32:10.647Z,10.20
2022-11-13T11:37:44.124Z,9.60
2022-11-13T11:43:43.641Z,9.55
2022-11-13T11:54:35.025Z,13.18
2022-11-13T12:00:13.443Z,11.38
2022-11-13T12:05:49.607Z,10.33
2022-11-13T12:11:37.647Z,12.50
2022-11-13T12:17:17.156Z,14.00
2022-11-13T12:23:02.714Z,10.60
2022-11-13T12:28:31.517Z,15.82
2022-11-13T12:34:18.885Z,12.70
2022-11-13T12:39:55.230Z,15.63
2022-11-13T12:45:38.602Z,13.57
2022-11-13T12:51:04.895Z,16.15
2022-11-13T12:56:26.117Z,17.73
2022-11-13T13:02:01.405Z,11.27
2022-11-13T13:07:48.009Z,12.02
2022-11-13T13:13:23.705Z,13.88
2022-11-13T13:18:45.143Z,13.98
2022-11-13T13:24:28.619Z,11.07
2022-11-13T13:29:48.968Z,19.55
2022-11-13T13:35:44.715Z,12.65
2022-11-13T13:41:58.788Z,9.70
2022-11-13T13:47:32.287Z,15.43
2022-11-13T13:52:55.915Z,17.58
2022-11-13T13:58:21.753Z,11.80
2022-11-13T14:03:42.395Z,20.50
2022-11-13T14:09:19.332Z,18.23
2022-11-13T14:14:40.164Z,21.63
2022-11-13T14:20:01.239Z,18.58
2022-11-13T14:25:28.051Z,18.40
2022-11-13T14:30:57.826Z,15.80
2022-11-13T14:36:27.810Z,16.83
2022-11-13T14:41:58.158Z,15.38
2022-11-13T14:47:37.760Z,15.90
2022-11-13T14:53:01.942Z,19.58
2022-11-13T14:58:29.726Z,21.30
2022-11-13T15:03:51.379Z,22.95
2022-11-13T15:09:15.525Z,16.98
2022-11-13T15:14:39.810Z,23.27
2022-11-13T15:20:02.148Z,20.27
2022-11-13T15:25:26.605Z,18.50
2022-11-13T15:30:47.104Z,21.27
2022-11-13T15:36:09.497Z,27.13
2022-11-13T15:41:30.606Z,21.15
2022-11-13T15:46:50.940Z,20.40
2022-11-13T15:52:11.575Z,23.40
2022-11-13T15:57:31.700Z,21.98
2022-11-13T16:02:56.918Z,24.70
2022-11-13T16:08:17.481Z,25.90
2022-11-13T16:13:38.197Z,28.20
2022-11-13T16:19:00.361Z,27.13
2022-11-13T16:24:24.189Z,29.05
2022-11-13T16:29:45.023Z,28.17
2022-11-13T16:35:05.871Z,24.42
2022-11-13T16:40:27.237Z,25.92
2022-11-13T16:45:47.804Z,28.85
2022-11-13T16:51:08.251Z,25.48
2022-11-13T16:56:30.723Z,33.00
2022-11-13T17:01:55.291Z,29.02
2022-11-13T17:07:16.171Z,30.83
2022-11-13T17:12:36.564Z,36.40
2022-11-13T17:17:58.624Z,33.85
2022-11-13T17:23:18.948Z,27.77
2022-11-13T17:28:40.459Z,24.33
2022-11-13T17:34:01.183Z,26.42
2022-11-13T17:39:21.813Z,28.85
2022-11-13T17:44:43.711Z,33.97
2022-11-13T17:50:07.594Z,28.67
2022-11-13T17:55:28.130Z,25.70
2022-11-13T18:00:49.155Z,33.40
2022-11-13T18:06:15.534Z,30.88
2022-11-13T18:11:41.243Z,31.85
2022-11-13T18:17:01.466Z,31.92
2022-11-13T18:22:22.561Z,34.17
2022-11-13T18:27:44.260Z,33.90
2022-11-13T18:33:05.091Z,32.50
2022-11-13T18:38:25.735Z,31.40
2022-11-13T18:43:48.587Z,38.05
2022-11-13T18:49:09.644Z,31.30
2022-11-13T18:54:30.133Z,27.23
2022-11-13T18:59:50.567Z,31.52
2022-11-13T19:05:11.443Z,28.65
2022-11-13T19:10:34.463Z,35.67
2022-11-13T19:15:56.071Z,30.77
2022-11-13T19:21:17.462Z,30.30
2022-11-13T19:26:38.978Z,33.75
2022-11-13T19:31:59.034Z,33.65
2022-11-13T19:37:19.521Z,34.58
2022-11-13T19:42:42.012Z,35.85
2022-11-13T19:48:02.867Z,34.42
2022-11-13T19:53:23.295Z,29.88
2022-11-13T19:58:44.893Z,27.15
2022-11-13T20:04:05.714Z,29.58
2022-11-13T20:09:25.914Z,38.67
2022-11-13T20:14:46.622Z,35.35
2022-11-13T20:20:08.365Z,28.70
2022-11-13T20:25:28.966Z,29.73
2022-11-13T20:30:51.662Z,32.17
2022-11-13T20:36:18.459Z,29.88
2022-11-13T20:41:39.023Z,27.58
2022-11-13T20:47:02.125Z,30.45
2022-11-13T20:52:24.767Z,32.75
2022-11-13T20:57:49.891Z,28.65
2022-11-13T21:03:10.228Z,32.95
2022-11-13T21:08:31.359Z,27.92
2022-11-13T21:13:55.682Z,29.13
2022-11-13T21:19:15.746Z,30.45
2022-11-13T21:24:37.999Z,26.40
2022-11-13T21:29:58.166Z,34.50
2022-11-13T21:35:22.384Z,28.08
2022-11-13T21:40:44.642Z,24.52
2022-11-13T21:46:06.345Z,29.58
2022-11-13T21:51:26.844Z,24.83
2022-11-13T21:56:47.003Z,24.67
2022-11-13T22:02:11.394Z,25.85
2022-11-13T22:07:32.233Z,22.98
2022-11-13T22:12:52.792Z,18.30
2022-11-13T22:18:13.046Z,22.08
2022-11-13T22:23:34.674Z,24.13
2022-11-13T22:28:56.343Z,23.48
2022-11-13T22:34:16.987Z,22.60
2022-11-13T22:39:37.738Z,24.05
2022-11-13T22:44:57.940Z,27.75
2022-11-13T22:50:18.281Z,25.20
2022-11-13T22:55:38.619Z,16.73
2022-11-13T23:01:07.912Z,20.15
2022-11-13T23:06:31.674Z,21.13
2022-11-13T23:11:51.789Z,18.75
2022-11-13T23:17:12.281Z,20.02
2022-11-13T23:22:32.574Z,20.48
2022-11-13T23:27:52.917Z,22.33
2022-11-13T23:33:13.389Z,16.35
2022-11-13T23:38:33.966Z,18.38
2022-11-13T23:44:08.071Z,18.50
2022-11-13T23:49:29.037Z,19.13
2022-11-13T23:54:49.225Z,17.17
